This is the latest recevied weather packets stored in our database for station/object K9CMP-13. If no packets are shown the sender has not sent any weather packets the latest 10 day(s).
| Time | Temp. | Humidity | Pressure | Rain* | Wind** | Luminosity | Snow |
|---|---|---|---|---|---|---|---|
| 1787850842 | 24.44° C | 62% | 1017.9 hPa | 0 mm | - | - | - |
| 1787849942 | 23.33° C | 66% | 1017.9 hPa | 0 mm | - | - | - |
| 1787848442 | 23.33° C | 69% | 1017.9 hPa | 0 mm | - | - | - |
| 1787847542 | 23.33° C | 67% | 1017.9 hPa | 0 mm | - | - | - |
| 1787846942 | 23.33° C | 65% | 1017.9 hPa | 0 mm | - | - | - |
| 1787841842 | 20.56° C | 80% | 1017.3 hPa | 0 mm | - | - | - |
| 1787840942 | 20° C | 83% | 1017.3 hPa | 0 mm | - | - | - |
| 1787840342 | 20° C | 82% | 1017.3 hPa | 0 mm | - | - | - |
| 1787838542 | 18.89° C | 86% | 1017.3 hPa | 0 mm | - | - | - |
| 1787837942 | 18.33° C | 88% | 1017.3 hPa | 0 mm | - | - | - |
| 1787835542 | 16.67° C | 92% | 1017.3 hPa | 0 mm | - | - | - |
| 1787834642 | 16.11° C | 95% | 1016.9 hPa | 0 mm | - | - | - |
| 1787831041 | 13.89° C | 100% | 1016.3 hPa | 0 mm | - | - | - |
| 1787830141 | 13.89° C | 100% | 1016.3 hPa | 0 mm | - | - | - |
| 1787829242 | 13.89° C | 100% | 1016.3 hPa | 0 mm | - | - | - |
| 1787828342 | 14.44° C | 100% | 1015.9 hPa | 0 mm | - | - | - |
| 1787826842 | 13.89° C | 100% | 1015.6 hPa | 0 mm | - | - | - |
| 1787825942 | 13.33° C | 100% | 1015.6 hPa | 0 mm | - | - | - |
| 1787824141 | 12.78° C | 100% | 1015.6 hPa | 0 mm | - | - | - |
| 1787822342 | 12.78° C | 99% | 1015.2 hPa | 0 mm | - | - | - |
| 1787820541 | 12.78° C | 99% | 1015.2 hPa | 0 mm | - | - | - |
| 1787819642 | 13.33° C | 98% | 1015.2 hPa | 0 mm | - | - | - |
| 1787818142 | 13.89° C | 98% | 1015.2 hPa | 0 mm | - | - | - |
| 1787815441 | 15.56° C | 98% | 1014.9 hPa | 0 mm | - | - | - |
| 1787813642 | 15.56° C | 98% | 1014.9 hPa | 0 mm | - | - | - |
* Rain latest hour (hover to see other rain measurements)
** Current wind speed in m/s (hover to see current wind gust speed)